Time;durP1;ratioP1;P1;durP2;ratioP2;P2;SDS_P1;SDS_P2;PMS_P1;PMS_P2;Temp;Humidity;BMP_temperature;BMP_pressure;BME280_temperature;BME280_humidity;BME280_pressure;Samples;Min_cycle;Max_cycle;Signal;HPM_P1;HPM_P2
2022/01/09 00:00:17;;;;;;;;;;;4.00;99.90;;;;;;5087478;28;20304;-45
2022/01/09 00:02:43;;;;;;;;;;;4.00;99.90;;;;;;5083766;28;19934;-44
2022/01/09 00:05:09;;;;;;;;;;;4.00;99.90;;;;;;5071400;28;20278;-45
2022/01/09 00:07:35;;;;;;;;;;;4.00;99.90;;;;;;5083781;28;19920;-47
2022/01/09 00:10:01;;;;;;;;;;;4.00;99.90;;;;;;5089184;28;19922;-46
2022/01/09 00:12:27;;;;;;;;;;;4.00;99.90;;;;;;5072497;28;19919;-45
2022/01/09 00:14:53;;;;;;;;;;;3.90;99.90;;;;;;5075367;28;19982;-45
2022/01/09 00:17:19;;;;;;;;;;;4.00;99.90;;;;;;5075323;28;19976;-46
2022/01/09 00:19:45;;;;;;;;;;;4.00;99.90;;;;;;5070396;28;19928;-48
2022/01/09 00:22:12;;;;;;;;;;;4.00;99.90;;;;;;5104768;27;20404;-45
2022/01/09 00:24:37;;;;;;;;;;;4.00;99.90;;;;;;5065731;28;19920;-48
2022/01/09 00:27:03;;;;;;;;;;;4.00;99.90;;;;;;5072404;28;20424;-46
2022/01/09 00:29:29;;;;;;;;;;;4.00;99.90;;;;;;5081657;28;19919;-49
2022/01/09 00:31:55;;;;;;;;;;;4.00;99.90;;;;;;5087695;28;19980;-47
2022/01/09 00:34:21;;;;;;;;;;;4.00;99.90;;;;;;5074057;28;19963;-45
2022/01/09 00:36:47;;;;;;;;;;;4.00;99.90;;;;;;5085001;28;19958;-45
2022/01/09 00:39:13;;;;;;;;;;;4.00;99.90;;;;;;5089460;28;19927;-44
2022/01/09 00:41:40;;;;;;;;;;;4.00;99.90;;;;;;5093078;28;19923;-45
2022/01/09 00:44:06;;;;;;;;;;;4.00;99.90;;;;;;5087523;28;19960;-45
2022/01/09 00:46:35;;;;;;;;;;;4.00;99.90;;;;;;5085905;28;20434;-47
2022/01/09 00:49:01;;;;;;;;;;;4.00;99.90;;;;;;5086185;28;19968;-46
2022/01/09 00:51:26;;;;;;;;;;;4.00;99.90;;;;;;5100435;28;19920;-47
2022/01/09 00:53:52;;;;;;;;;;;4.00;99.90;;;;;;5072406;28;19976;-47
2022/01/09 00:56:18;;;;;;;;;;;4.00;99.90;;;;;;5086223;28;20357;-46
2022/01/09 00:58:44;;;;;;;;;;;4.00;99.90;;;;;;5088736;28;19924;-47
2022/01/09 01:01:10;;;;;;;;;;;4.00;99.90;;;;;;5081763;28;19924;-46
2022/01/09 01:03:35;;;;;;;;;;;4.00;99.90;;;;;;5086136;28;19924;-48
2022/01/09 01:06:01;;;;;;;;;;;4.00;99.90;;;;;;5069867;28;19916;-45
2022/01/09 01:08:27;;;;;;;;;;;3.90;99.90;;;;;;5089190;28;19920;-45
2022/01/09 01:10:53;;;;;;;;;;;4.00;99.90;;;;;;5083513;28;20808;-45
2022/01/09 01:13:19;;;;;;;;;;;3.90;99.90;;;;;;5068443;28;19920;-46
2022/01/09 01:15:47;;;;;;;;;;;4.00;99.90;;;;;;5065067;28;19923;-49
2022/01/09 01:18:13;;;;;;;;;;;3.90;99.90;;;;;;5069008;28;19923;-45
2022/01/09 01:20:40;;;;;;;;;;;4.00;99.90;;;;;;5101123;27;19931;-46
2022/01/09 01:23:06;;;;;;;;;;;3.90;99.90;;;;;;5092532;28;19920;-48
2022/01/09 01:25:32;;;;;;;;;;;4.00;99.90;;;;;;5090015;28;19919;-45
2022/01/09 01:27:58;;;;;;;;;;;4.00;99.90;;;;;;5085835;28;19920;-47
2022/01/09 01:30:23;;;;;;;;;;;3.90;99.90;;;;;;5072083;28;19927;-51
2022/01/09 01:32:52;;;;;;;;;;;4.00;99.90;;;;;;5065147;28;19923;-48
2022/01/09 01:35:18;;;;;;;;;;;4.00;99.90;;;;;;5055319;28;19920;-46
2022/01/09 01:37:44;;;;;;;;;;;4.00;99.90;;;;;;5088934;28;19916;-48
2022/01/09 01:40:13;;;;;;;;;;;4.00;99.90;;;;;;5090848;28;19927;-46
2022/01/09 01:42:39;;;;;;;;;;;4.00;99.90;;;;;;5091329;28;20297;-47
2022/01/09 01:45:05;;;;;;;;;;;4.00;99.90;;;;;;5086292;28;19920;-47
2022/01/09 01:47:31;;;;;;;;;;;4.00;99.90;;;;;;5080037;28;19916;-48
2022/01/09 01:49:56;;;;;;;;;;;4.00;99.90;;;;;;5084420;28;20385;-46
2022/01/09 01:52:29;;;;;;;;;;;4.00;99.90;;;;;;5092462;28;19923;-50
2022/01/09 01:55:14;;;;;;;;;;;4.00;99.90;;;;;;5083721;28;20224;-49
2022/01/09 01:57:40;;;;;;;;;;;4.00;99.90;;;;;;5084221;28;19995;-48
2022/01/09 02:00:07;;;;;;;;;;;4.00;99.90;;;;;;5088565;28;19920;-50
2022/01/09 02:02:33;;;;;;;;;;;4.00;99.90;;;;;;5071006;28;19917;-47
2022/01/09 02:04:59;;;;;;;;;;;4.00;99.90;;;;;;5071288;28;20322;-51
2022/01/09 02:07:27;;;;;;;;;;;4.00;99.90;;;;;;5071592;28;19977;-48
2022/01/09 02:09:53;;;;;;;;;;;4.00;99.90;;;;;;5085209;28;19952;-48
2022/01/09 02:12:19;;;;;;;;;;;4.00;99.90;;;;;;5068540;28;19963;-49
2022/01/09 02:14:47;;;;;;;;;;;4.00;99.90;;;;;;5075828;28;19924;-50
2022/01/09 02:17:17;;;;;;;;;;;4.00;99.90;;;;;;5060815;28;19924;-48
2022/01/09 02:19:53;;;;;;;;;;;4.00;99.90;;;;;;5083005;28;19931;-51
2022/01/09 02:22:19;;;;;;;;;;;4.00;99.90;;;;;;5098529;27;20692;-49
2022/01/09 02:24:46;;;;;;;;;;;4.00;99.90;;;;;;5083878;28;19920;-50
2022/01/09 02:27:12;;;;;;;;;;;4.00;99.90;;;;;;5067402;28;19946;-51
2022/01/09 02:29:37;;;;;;;;;;;4.00;99.90;;;;;;5073908;28;20018;-49
2022/01/09 02:32:03;;;;;;;;;;;4.00;99.90;;;;;;5072266;28;20011;-48
2022/01/09 02:34:29;;;;;;;;;;;4.00;99.90;;;;;;5077323;28;20333;-48
2022/01/09 02:36:55;;;;;;;;;;;4.00;99.90;;;;;;5057411;28;19924;-49
2022/01/09 02:39:21;;;;;;;;;;;4.00;99.90;;;;;;5056748;28;20277;-51
2022/01/09 02:41:46;;;;;;;;;;;4.00;99.90;;;;;;5055295;28;20014;-50
2022/01/09 02:44:12;;;;;;;;;;;4.10;99.90;;;;;;5055655;28;19919;-52
2022/01/09 02:49:08;;;;;;;;;;;4.10;99.90;;;;;;5055935;28;19917;-48
2022/01/09 02:51:35;;;;;;;;;;;4.10;99.90;;;;;;5071590;28;19946;-48
2022/01/09 02:55:04;;;;;;;;;;;4.10;99.90;;;;;;5077226;28;20018;-48
2022/01/09 02:56:46;;;;;;;;;;;4.10;99.90;;;;;;5089348;28;19930;-48
2022/01/09 02:59:12;;;;;;;;;;;4.10;99.90;;;;;;5077241;28;20301;-51
2022/01/09 03:02:03;;;;;;;;;;;4.10;99.90;;;;;;5085558;28;20369;-51
2022/01/09 03:04:29;;;;;;;;;;;4.10;99.90;;;;;;5085771;28;19920;-52
2022/01/09 03:06:55;;;;;;;;;;;4.20;99.90;;;;;;5094363;28;19922;-51
2022/01/09 03:09:22;;;;;;;;;;;4.20;99.90;;;;;;5069297;28;19916;-49
2022/01/09 03:11:49;;;;;;;;;;;4.30;99.90;;;;;;5079492;28;20101;-50
2022/01/09 03:14:15;;;;;;;;;;;4.30;99.90;;;;;;5072924;28;20309;-47
2022/01/09 03:16:41;;;;;;;;;;;4.30;99.90;;;;;;5041308;28;19916;-47
2022/01/09 03:19:07;;;;;;;;;;;4.30;99.90;;;;;;5056181;28;19924;-49
2022/01/09 03:21:32;;;;;;;;;;;4.40;99.90;;;;;;5063795;28;19924;-49
2022/01/09 03:23:58;;;;;;;;;;;4.40;99.90;;;;;;5068471;28;19972;-47
2022/01/09 03:26:24;;;;;;;;;;;4.50;99.90;;;;;;5067043;28;19943;-45
2022/01/09 03:28:50;;;;;;;;;;;4.50;99.90;;;;;;5071221;28;19931;-46
2022/01/09 03:31:16;;;;;;;;;;;4.60;99.90;;;;;;5072321;28;19962;-49
2022/01/09 03:33:41;;;;;;;;;;;4.60;99.90;;;;;;5072639;28;19970;-50
2022/01/09 03:36:07;;;;;;;;;;;4.70;99.90;;;;;;5050736;28;20262;-49
2022/01/09 03:38:33;;;;;;;;;;;4.80;99.90;;;;;;5055883;28;19928;-53
2022/01/09 03:40:59;;;;;;;;;;;4.90;99.90;;;;;;5067961;28;19916;-48
2022/01/09 03:43:24;;;;;;;;;;;4.90;99.90;;;;;;5071846;28;20338;-52
2022/01/09 03:45:50;;;;;;;;;;;5.00;99.90;;;;;;5071654;28;19924;-54
2022/01/09 03:48:16;;;;;;;;;;;4.90;99.90;;;;;;5076569;28;19924;-53
2022/01/09 03:50:49;;;;;;;;;;;4.90;99.90;;;;;;5069299;28;19977;-52
2022/01/09 03:53:15;;;;;;;;;;;4.90;99.90;;;;;;5053351;28;19924;-51
2022/01/09 03:55:41;;;;;;;;;;;4.90;99.90;;;;;;5068624;28;19916;-51
2022/01/09 03:58:07;;;;;;;;;;;4.90;99.90;;;;;;5068643;28;19931;-52
2022/01/09 04:00:32;;;;;;;;;;;4.90;99.90;;;;;;5071298;28;19983;-53
2022/01/09 04:02:58;;;;;;;;;;;4.90;99.90;;;;;;5072858;28;19920;-52
2022/01/09 04:05:24;;;;;;;;;;;4.90;99.90;;;;;;5074956;28;19939;-52
2022/01/09 04:07:50;;;;;;;;;;;4.90;99.90;;;;;;5051207;28;19964;-51
2022/01/09 04:10:18;;;;;;;;;;;4.90;99.90;;;;;;5070877;28;19923;-53
2022/01/09 04:12:49;;;;;;;;;;;4.90;99.90;;;;;;5068803;28;20275;-50
2022/01/09 04:15:16;;;;;;;;;;;4.90;99.90;;;;;;5067709;28;19916;-49
2022/01/09 04:17:52;;;;;;;;;;;4.90;99.90;;;;;;5074681;28;20007;-50
2022/01/09 04:20:22;;;;;;;;;;;4.90;99.90;;;;;;5070722;28;20377;-51
2022/01/09 04:22:48;;;;;;;;;;;5.00;99.90;;;;;;5073624;28;19939;-49
2022/01/09 04:25:14;;;;;;;;;;;5.00;99.90;;;;;;5065441;28;20416;-49
2022/01/09 04:27:40;;;;;;;;;;;4.90;99.90;;;;;;5073571;28;19928;-53
2022/01/09 04:30:06;;;;;;;;;;;5.00;99.90;;;;;;5071702;28;20340;-51
2022/01/09 04:32:32;;;;;;;;;;;5.00;99.90;;;;;;5065767;28;19920;-53
2022/01/09 04:34:58;;;;;;;;;;;5.00;99.90;;;;;;5053829;28;19920;-51
2022/01/09 04:37:24;;;;;;;;;;;5.00;99.90;;;;;;5072160;28;20359;-53
2022/01/09 04:39:52;;;;;;;;;;;5.10;99.90;;;;;;5054586;28;19936;-55
2022/01/09 04:42:18;;;;;;;;;;;5.10;99.90;;;;;;5053151;28;20016;-52
2022/01/09 04:44:44;;;;;;;;;;;5.20;99.90;;;;;;5068598;28;19966;-48
2022/01/09 04:47:14;;;;;;;;;;;5.20;99.90;;;;;;5069145;28;19920;-52
2022/01/09 04:49:42;;;;;;;;;;;5.20;99.90;;;;;;5051983;28;19924;-51
2022/01/09 04:52:12;;;;;;;;;;;5.30;99.90;;;;;;5073158;28;19924;-54
2022/01/09 04:54:38;;;;;;;;;;;5.30;99.90;;;;;;5065863;28;19924;-53
2022/01/09 04:57:04;;;;;;;;;;;5.30;99.90;;;;;;5071229;28;20298;-52
2022/01/09 04:59:30;;;;;;;;;;;5.30;99.90;;;;;;5066508;28;19971;-53
2022/01/09 05:01:55;;;;;;;;;;;5.30;99.90;;;;;;5073888;28;19926;-54
2022/01/09 05:04:21;;;;;;;;;;;5.30;99.90;;;;;;5072945;28;19920;-53
2022/01/09 05:06:47;;;;;;;;;;;5.40;99.90;;;;;;5068308;28;20378;-54
2022/01/09 05:09:13;;;;;;;;;;;5.40;99.90;;;;;;5067309;28;20404;-53
2022/01/09 05:11:38;;;;;;;;;;;5.40;99.90;;;;;;5055976;28;20019;-51
2022/01/09 05:14:04;;;;;;;;;;;5.40;99.90;;;;;;5073570;28;19924;-54
2022/01/09 05:16:31;;;;;;;;;;;5.40;99.90;;;;;;5074915;28;19920;-53
2022/01/09 05:19:06;;;;;;;;;;;5.40;99.90;;;;;;5076401;28;20294;-53
2022/01/09 05:21:33;;;;;;;;;;;5.40;99.90;;;;;;5089045;28;19930;-51
2022/01/09 05:23:58;;;;;;;;;;;5.50;99.90;;;;;;5076492;28;20463;-54
2022/01/09 05:26:24;;;;;;;;;;;5.50;99.90;;;;;;5057177;28;19954;-54
2022/01/09 05:28:50;;;;;;;;;;;5.50;99.90;;;;;;5088696;28;19970;-53
2022/01/09 05:31:16;;;;;;;;;;;5.40;99.90;;;;;;5087360;28;20258;-55
2022/01/09 05:33:41;;;;;;;;;;;5.40;99.90;;;;;;5047777;28;19930;-53
2022/01/09 05:36:07;;;;;;;;;;;5.50;99.90;;;;;;5072478;28;19924;-54
2022/01/09 05:38:33;;;;;;;;;;;5.40;99.90;;;;;;5095517;28;19920;-53
2022/01/09 05:40:59;;;;;;;;;;;5.40;99.90;;;;;;5072924;28;20491;-55
2022/01/09 05:43:25;;;;;;;;;;;5.40;99.90;;;;;;5095395;28;19916;-53
2022/01/09 05:45:51;;;;;;;;;;;5.40;99.90;;;;;;5069234;28;20275;-53
2022/01/09 05:48:17;;;;;;;;;;;5.40;99.90;;;;;;5083364;28;19916;-50
2022/01/09 05:50:43;;;;;;;;;;;5.40;99.90;;;;;;5067748;28;19931;-54
2022/01/09 05:53:09;;;;;;;;;;;5.40;99.90;;;;;;5076627;28;19920;-52
2022/01/09 05:55:35;;;;;;;;;;;5.40;99.90;;;;;;5055068;28;19924;-54
2022/01/09 05:58:00;;;;;;;;;;;5.40;99.90;;;;;;5075238;28;19935;-56
2022/01/09 06:00:26;;;;;;;;;;;5.30;99.90;;;;;;5072748;28;19938;-53
2022/01/09 06:02:52;;;;;;;;;;;5.30;99.90;;;;;;5070117;28;19932;-55
2022/01/09 06:05:18;;;;;;;;;;;5.30;99.90;;;;;;5088530;28;20285;-52
2022/01/09 06:07:43;;;;;;;;;;;5.30;99.90;;;;;;5093010;28;20303;-53
2022/01/09 06:10:10;;;;;;;;;;;5.30;99.90;;;;;;5093342;28;19992;-54
2022/01/09 06:12:36;;;;;;;;;;;5.30;99.90;;;;;;5091381;28;19916;-53
2022/01/09 06:15:03;;;;;;;;;;;5.20;99.90;;;;;;5107020;27;20526;-54
2022/01/09 06:17:28;;;;;;;;;;;5.20;99.90;;;;;;5060938;28;19920;-51
2022/01/09 06:19:54;;;;;;;;;;;5.20;99.90;;;;;;5077528;28;20281;-53
2022/01/09 06:22:21;;;;;;;;;;;5.20;99.90;;;;;;5089063;28;20314;-54
2022/01/09 06:24:47;;;;;;;;;;;5.20;99.90;;;;;;5083823;28;19963;-52
2022/01/09 06:27:13;;;;;;;;;;;5.20;99.90;;;;;;5088886;28;19919;-52
2022/01/09 06:29:39;;;;;;;;;;;5.10;99.90;;;;;;5093103;28;19919;-51
2022/01/09 06:32:06;;;;;;;;;;;5.10;99.90;;;;;;5075359;28;19924;-55
2022/01/09 06:34:31;;;;;;;;;;;5.10;99.90;;;;;;5092345;28;20355;-53
2022/01/09 06:36:57;;;;;;;;;;;5.10;99.90;;;;;;5091690;28;19967;-54
2022/01/09 06:39:23;;;;;;;;;;;5.10;99.90;;;;;;5097269;28;19920;-53
2022/01/09 06:41:49;;;;;;;;;;;5.10;99.90;;;;;;5092152;28;20417;-53
2022/01/09 06:44:15;;;;;;;;;;;5.10;99.90;;;;;;5072304;28;19923;-54
2022/01/09 06:46:41;;;;;;;;;;;5.10;99.90;;;;;;5092244;28;19916;-52
2022/01/09 06:49:07;;;;;;;;;;;5.10;99.90;;;;;;5093817;28;19989;-50
2022/01/09 06:51:32;;;;;;;;;;;5.00;99.90;;;;;;5057228;28;19919;-51
2022/01/09 06:53:58;;;;;;;;;;;5.00;99.90;;;;;;5078630;28;20410;-53
2022/01/09 06:56:24;;;;;;;;;;;5.00;99.90;;;;;;5106264;27;19955;-49
2022/01/09 06:58:50;;;;;;;;;;;5.00;99.90;;;;;;5089682;28;20035;-50
2022/01/09 07:01:15;;;;;;;;;;;5.00;99.90;;;;;;5074982;28;20401;-51
2022/01/09 07:03:41;;;;;;;;;;;5.00;99.90;;;;;;5073636;28;19923;-50
2022/01/09 07:06:07;;;;;;;;;;;5.00;99.90;;;;;;5105305;27;19948;-52
2022/01/09 07:08:36;;;;;;;;;;;5.00;99.90;;;;;;5075497;28;19924;-53
2022/01/09 07:11:02;;;;;;;;;;;5.00;99.90;;;;;;5089473;28;19947;-52
2022/01/09 07:13:28;;;;;;;;;;;5.00;99.90;;;;;;5104290;28;19962;-52
2022/01/09 07:15:53;;;;;;;;;;;4.90;99.90;;;;;;5060248;28;19943;-51
2022/01/09 07:18:19;;;;;;;;;;;4.90;99.90;;;;;;5092316;28;19931;-49
2022/01/09 07:20:45;;;;;;;;;;;4.90;99.90;;;;;;5089013;28;20045;-49
2022/01/09 07:23:11;;;;;;;;;;;4.90;99.90;;;;;;5091848;28;19926;-50
2022/01/09 07:25:36;;;;;;;;;;;4.90;99.90;;;;;;5088191;28;19920;-53
2022/01/09 07:28:02;;;;;;;;;;;4.90;99.90;;;;;;5095192;28;19920;-50
2022/01/09 07:30:29;;;;;;;;;;;4.90;99.90;;;;;;5076011;28;19926;-48
2022/01/09 07:32:55;;;;;;;;;;;4.90;99.90;;;;;;5095714;28;19957;-53
2022/01/09 07:35:21;;;;;;;;;;;4.90;99.90;;;;;;5049960;28;19916;-50
2022/01/09 07:37:46;;;;;;;;;;;4.90;99.90;;;;;;5090549;28;19927;-51
2022/01/09 07:40:12;;;;;;;;;;;4.90;99.90;;;;;;5076584;28;20389;-52
2022/01/09 07:42:38;;;;;;;;;;;4.90;99.90;;;;;;5093771;28;19919;-48
2022/01/09 07:45:06;;;;;;;;;;;4.90;99.90;;;;;;5086238;28;19916;-51
2022/01/09 07:47:33;;;;;;;;;;;4.90;99.90;;;;;;5104140;27;19947;-48
2022/01/09 07:49:59;;;;;;;;;;;4.90;99.90;;;;;;5093836;28;19955;-49
2022/01/09 07:52:24;;;;;;;;;;;4.80;99.90;;;;;;5074127;28;19955;-52
2022/01/09 07:54:50;;;;;;;;;;;4.80;99.90;;;;;;5091027;28;19920;-50
2022/01/09 07:57:17;;;;;;;;;;;4.80;99.90;;;;;;5070617;28;19978;-49
2022/01/09 07:59:42;;;;;;;;;;;4.80;99.90;;;;;;5088961;28;19924;-52
2022/01/09 08:02:09;;;;;;;;;;;4.80;99.90;;;;;;5088456;28;20419;-52
2022/01/09 08:04:35;;;;;;;;;;;4.80;99.90;;;;;;5088975;28;19990;-51
2022/01/09 08:07:01;;;;;;;;;;;4.80;99.90;;;;;;5069951;28;19962;-48
2022/01/09 08:09:26;;;;;;;;;;;4.80;99.90;;;;;;5085101;28;19920;-51
2022/01/09 08:11:53;;;;;;;;;;;4.80;99.90;;;;;;5073053;28;19963;-51
2022/01/09 08:14:19;;;;;;;;;;;4.80;99.90;;;;;;5097577;28;19994;-50
2022/01/09 08:16:44;;;;;;;;;;;4.80;99.90;;;;;;5072794;28;20026;-46
2022/01/09 08:19:10;;;;;;;;;;;4.80;99.90;;;;;;5041678;28;19920;-50
2022/01/09 08:21:36;;;;;;;;;;;4.70;99.90;;;;;;5083526;28;19924;-50
2022/01/09 08:24:02;;;;;;;;;;;4.70;99.90;;;;;;5084196;28;19920;-48
2022/01/09 08:26:27;;;;;;;;;;;4.80;99.90;;;;;;5070397;28;19924;-51
2022/01/09 08:28:54;;;;;;;;;;;4.70;99.90;;;;;;5086531;28;19923;-51
2022/01/09 08:31:20;;;;;;;;;;;4.70;99.90;;;;;;5086582;28;20076;-50
2022/01/09 08:33:46;;;;;;;;;;;4.80;99.90;;;;;;5068688;28;20413;-49
2022/01/09 08:36:12;;;;;;;;;;;4.70;99.90;;;;;;5085576;28;20287;-49
2022/01/09 08:38:38;;;;;;;;;;;4.80;99.90;;;;;;5076946;28;19920;-50
2022/01/09 08:41:04;;;;;;;;;;;4.70;99.90;;;;;;5050288;28;20449;-48
2022/01/09 08:43:31;;;;;;;;;;;4.70;99.90;;;;;;5103218;28;19923;-50
2022/01/09 08:45:57;;;;;;;;;;;4.70;99.90;;;;;;5070243;28;19965;-51
2022/01/09 08:48:23;;;;;;;;;;;4.70;99.90;;;;;;5086476;28;20245;-47
2022/01/09 08:50:49;;;;;;;;;;;4.70;99.90;;;;;;5065858;28;19923;-50
2022/01/09 08:53:15;;;;;;;;;;;4.70;99.90;;;;;;5089778;28;20014;-51
2022/01/09 08:55:41;;;;;;;;;;;4.70;99.90;;;;;;5067740;28;19938;-51
2022/01/09 08:58:07;;;;;;;;;;;4.70;99.90;;;;;;5082659;28;20389;-50
2022/01/09 09:00:33;;;;;;;;;;;4.70;99.90;;;;;;5063525;28;19931;-50
2022/01/09 09:02:59;;;;;;;;;;;4.80;99.90;;;;;;5088490;28;19924;-51
2022/01/09 09:05:24;;;;;;;;;;;4.80;99.90;;;;;;5038887;28;19916;-47
2022/01/09 09:07:50;;;;;;;;;;;4.80;99.90;;;;;;5067395;28;19916;-52
2022/01/09 09:10:16;;;;;;;;;;;4.80;99.90;;;;;;5072996;28;20058;-47
2022/01/09 09:12:42;;;;;;;;;;;4.90;99.90;;;;;;5085790;28;19998;-49
2022/01/09 09:15:09;;;;;;;;;;;4.90;99.90;;;;;;5071715;28;19927;-50
2022/01/09 09:17:35;;;;;;;;;;;4.90;99.90;;;;;;5067564;28;20258;-51
2022/01/09 09:20:01;;;;;;;;;;;4.90;99.90;;;;;;5052581;28;19928;-51
2022/01/09 09:22:27;;;;;;;;;;;4.90;99.90;;;;;;5063306;28;20448;-48
2022/01/09 09:24:53;;;;;;;;;;;4.90;99.90;;;;;;5084876;28;19939;-51
2022/01/09 09:27:19;;;;;;;;;;;4.90;99.90;;;;;;5071127;28;19948;-50
2022/01/09 09:29:45;;;;;;;;;;;5.00;99.90;;;;;;5083704;28;20289;-51
2022/01/09 09:32:13;;;;;;;;;;;5.00;99.90;;;;;;5068325;28;19933;-48
2022/01/09 09:34:39;;;;;;;;;;;5.00;99.90;;;;;;5085675;28;20010;-51
2022/01/09 09:37:06;;;;;;;;;;;5.10;99.90;;;;;;5067254;28;20010;-50
2022/01/09 09:39:32;;;;;;;;;;;5.10;99.90;;;;;;5084873;28;20314;-51
2022/01/09 09:41:59;;;;;;;;;;;5.10;99.90;;;;;;5089194;28;19950;-47
2022/01/09 09:44:25;;;;;;;;;;;5.10;99.90;;;;;;5088871;28;19928;-49
2022/01/09 09:46:53;;;;;;;;;;;5.10;99.90;;;;;;5089037;28;19920;-52
2022/01/09 09:49:19;;;;;;;;;;;5.20;99.90;;;;;;5077917;28;19926;-48
2022/01/09 09:51:45;;;;;;;;;;;5.20;99.90;;;;;;5074297;28;20485;-50
2022/01/09 09:54:11;;;;;;;;;;;5.20;99.90;;;;;;5072767;28;19916;-47
2022/01/09 09:56:37;;;;;;;;;;;5.20;99.90;;;;;;5087489;28;19927;-47
2022/01/09 09:59:03;;;;;;;;;;;5.20;99.90;;;;;;5075305;28;20002;-48
2022/01/09 10:01:33;;;;;;;;;;;5.30;99.90;;;;;;5073198;28;19951;-48
2022/01/09 10:04:01;;;;;;;;;;;5.30;99.90;;;;;;5072790;28;19916;-51
2022/01/09 10:06:35;;;;;;;;;;;5.30;99.90;;;;;;5084211;28;19920;-50
2022/01/09 10:09:16;;;;;;;;;;;5.30;99.90;;;;;;5072827;28;20322;-51
2022/01/09 10:11:45;;;;;;;;;;;5.30;99.90;;;;;;5087705;28;19916;-48
2022/01/09 10:14:11;;;;;;;;;;;5.30;99.90;;;;;;5074745;28;20141;-49
2022/01/09 10:16:37;;;;;;;;;;;5.40;99.90;;;;;;5095879;28;20032;-47
2022/01/09 10:19:03;;;;;;;;;;;5.40;99.90;;;;;;5074346;28;20445;-49
2022/01/09 10:21:29;;;;;;;;;;;5.40;99.90;;;;;;5053425;28;19984;-48
2022/01/09 10:23:57;;;;;;;;;;;5.40;99.90;;;;;;5053518;28;20347;-48
2022/01/09 10:26:23;;;;;;;;;;;5.40;99.90;;;;;;5068994;28;19924;-47
2022/01/09 10:28:49;;;;;;;;;;;5.40;99.90;;;;;;5053317;28;19926;-47
2022/01/09 10:31:16;;;;;;;;;;;5.40;99.90;;;;;;5054568;28;19927;-49
2022/01/09 10:33:55;;;;;;;;;;;5.30;99.90;;;;;;5037628;28;20535;-50
2022/01/09 10:36:40;;;;;;;;;;;5.30;99.90;;;;;;5069147;28;20272;-47
2022/01/09 10:39:07;;;;;;;;;;;5.30;99.90;;;;;;5055182;28;19966;-47
2022/01/09 10:41:47;;;;;;;;;;;5.30;99.90;;;;;;5065479;28;19929;-48
2022/01/09 10:44:20;;;;;;;;;;;5.30;99.90;;;;;;5068173;28;20235;-47
2022/01/09 10:47:15;;;;;;;;;;;5.30;99.90;;;;;;5067302;28;19917;-50
2022/01/09 10:49:52;;;;;;;;;;;5.30;99.90;;;;;;5048213;28;20060;-51
2022/01/09 10:52:19;;;;;;;;;;;5.40;99.90;;;;;;5073266;28;19920;-48
2022/01/09 10:54:46;;;;;;;;;;;5.50;99.90;;;;;;5050064;28;19924;-46
2022/01/09 10:57:16;;;;;;;;;;;5.50;99.90;;;;;;5071373;28;20026;-46
2022/01/09 10:59:42;;;;;;;;;;;5.50;99.90;;;;;;5035347;28;20330;-48
2022/01/09 11:02:10;;;;;;;;;;;5.60;99.90;;;;;;5056815;28;20030;-49
2022/01/09 11:04:36;;;;;;;;;;;5.70;99.90;;;;;;5065286;28;19932;-49
2022/01/09 11:07:02;;;;;;;;;;;5.80;99.90;;;;;;5051135;28;19927;-47
2022/01/09 11:09:31;;;;;;;;;;;5.70;99.90;;;;;;5065855;28;19920;-46
2022/01/09 11:11:57;;;;;;;;;;;5.70;99.90;;;;;;5068290;28;19925;-46
2022/01/09 11:14:24;;;;;;;;;;;5.80;99.90;;;;;;5086515;28;20305;-47
2022/01/09 11:16:54;;;;;;;;;;;5.70;99.90;;;;;;5065838;28;19927;-48
2022/01/09 11:19:26;;;;;;;;;;;5.70;99.90;;;;;;5066414;28;19934;-46
2022/01/09 11:21:59;;;;;;;;;;;5.70;99.90;;;;;;5082186;28;20014;-49
2022/01/09 11:24:25;;;;;;;;;;;5.60;99.90;;;;;;5067452;28;19916;-46
2022/01/09 11:26:59;;;;;;;;;;;5.60;99.90;;;;;;5049485;28;20001;-47
2022/01/09 11:29:29;;;;;;;;;;;5.60;99.90;;;;;;5064823;28;20033;-48
2022/01/09 11:32:13;;;;;;;;;;;5.60;99.90;;;;;;5066953;28;19924;-45
2022/01/09 11:34:54;;;;;;;;;;;5.60;99.90;;;;;;5049667;28;20019;-47
2022/01/09 11:37:34;;;;;;;;;;;5.60;99.90;;;;;;5050178;28;19944;-46
2022/01/09 11:40:01;;;;;;;;;;;5.60;99.90;;;;;;5035149;28;19928;-46
2022/01/09 11:42:26;;;;;;;;;;;5.60;99.90;;;;;;5069166;28;19916;-48
2022/01/09 11:44:54;;;;;;;;;;;5.70;99.90;;;;;;5066379;28;20370;-45
2022/01/09 11:47:20;;;;;;;;;;;5.70;99.90;;;;;;5052710;28;19921;-48
2022/01/09 11:49:52;;;;;;;;;;;5.70;99.90;;;;;;5066336;28;20003;-48
2022/01/09 11:52:18;;;;;;;;;;;5.70;99.90;;;;;;5047963;28;19923;-48
2022/01/09 11:54:51;;;;;;;;;;;5.70;99.90;;;;;;5064567;28;19999;-47
2022/01/09 11:57:49;;;;;;;;;;;5.70;99.90;;;;;;5051624;28;19922;-48
2022/01/09 12:00:29;;;;;;;;;;;5.70;99.90;;;;;;5032502;28;19924;-48
2022/01/09 12:02:55;;;;;;;;;;;5.70;99.90;;;;;;5067615;28;19920;-49
2022/01/09 12:05:22;;;;;;;;;;;5.80;99.90;;;;;;5046557;28;20262;-50
2022/01/09 12:07:48;;;;;;;;;;;5.90;99.90;;;;;;5035158;28;20012;-50
2022/01/09 12:10:17;;;;;;;;;;;5.90;99.90;;;;;;5055175;28;19974;-47
2022/01/09 12:12:43;;;;;;;;;;;6.00;99.90;;;;;;5081290;28;20290;-46
2022/01/09 12:15:09;;;;;;;;;;;6.00;99.90;;;;;;5061476;28;19931;-47
2022/01/09 12:17:39;;;;;;;;;;;6.10;99.90;;;;;;5067798;28;19926;-46
2022/01/09 12:20:12;;;;;;;;;;;6.10;99.90;;;;;;5065625;28;20015;-49
2022/01/09 12:22:41;;;;;;;;;;;6.20;99.90;;;;;;5068150;28;19923;-48
2022/01/09 12:25:21;;;;;;;;;;;6.20;99.90;;;;;;5063969;28;19927;-48
2022/01/09 12:27:48;;;;;;;;;;;6.30;99.90;;;;;;5065323;28;19956;-47
2022/01/09 12:30:41;;;;;;;;;;;6.40;99.90;;;;;;5041824;28;19916;-47
2022/01/09 12:33:28;;;;;;;;;;;6.40;99.90;;;;;;5064168;28;19924;-48
2022/01/09 12:36:11;;;;;;;;;;;6.50;99.90;;;;;;5053200;28;19924;-46
2022/01/09 12:38:42;;;;;;;;;;;6.60;99.90;;;;;;5061706;28;20344;-50
2022/01/09 12:41:17;;;;;;;;;;;6.60;99.90;;;;;;5045807;28;19928;-47
2022/01/09 12:43:43;;;;;;;;;;;6.70;99.90;;;;;;5064070;28;19931;-48
2022/01/09 12:46:09;;;;;;;;;;;6.70;99.90;;;;;;5045803;28;20341;-48
2022/01/09 12:48:35;;;;;;;;;;;6.80;99.90;;;;;;5065145;28;19917;-47
2022/01/09 12:51:09;;;;;;;;;;;6.80;99.90;;;;;;5047788;28;19916;-46
2022/01/09 12:53:39;;;;;;;;;;;6.80;99.90;;;;;;5060296;28;20300;-47
2022/01/09 12:56:14;;;;;;;;;;;6.80;99.90;;;;;;5055349;28;19920;-47
2022/01/09 12:58:40;;;;;;;;;;;6.90;99.90;;;;;;5050453;28;19931;-49
2022/01/09 13:01:16;;;;;;;;;;;7.00;99.90;;;;;;5049059;28;20624;-48
2022/01/09 13:03:43;;;;;;;;;;;7.00;99.90;;;;;;5078407;28;19921;-46
2022/01/09 13:06:10;;;;;;;;;;;7.00;99.90;;;;;;5063260;28;19924;-51
2022/01/09 13:08:39;;;;;;;;;;;6.90;99.90;;;;;;5065466;28;19935;-48
2022/01/09 13:11:08;;;;;;;;;;;6.90;99.90;;;;;;5064534;28;19916;-46
2022/01/09 13:13:35;;;;;;;;;;;6.90;99.90;;;;;;5062032;28;19916;-50
2022/01/09 13:16:15;;;;;;;;;;;6.90;99.90;;;;;;5065014;28;20251;-47
2022/01/09 13:18:45;;;;;;;;;;;6.80;99.90;;;;;;5049895;28;19935;-46
2022/01/09 13:21:17;;;;;;;;;;;6.70;99.90;;;;;;5054136;28;19964;-49
2022/01/09 13:24:06;;;;;;;;;;;6.60;99.90;;;;;;5054139;28;19932;-48
2022/01/09 13:26:34;;;;;;;;;;;6.50;99.90;;;;;;5065121;28;20086;-51
2022/01/09 13:29:00;;;;;;;;;;;6.40;99.90;;;;;;5070117;28;19927;-46
2022/01/09 13:31:35;;;;;;;;;;;6.30;99.90;;;;;;5066048;28;19916;-48
2022/01/09 13:34:06;;;;;;;;;;;6.30;99.90;;;;;;5055653;28;19921;-46
2022/01/09 13:36:33;;;;;;;;;;;5.70;99.90;;;;;;5037929;28;19916;-49
2022/01/09 13:39:00;;;;;;;;;;;6.30;99.90;;;;;;5067736;28;19923;-48
2022/01/09 13:41:30;;;;;;;;;;;6.40;99.90;;;;;;5068543;28;19928;-48
2022/01/09 13:43:56;;;;;;;;;;;6.40;99.90;;;;;;5067789;28;19916;-46
2022/01/09 13:46:23;;;;;;;;;;;6.50;99.90;;;;;;5051340;28;20224;-46
2022/01/09 13:48:50;;;;;;;;;;;6.40;99.90;;;;;;5052183;28;20015;-47
2022/01/09 13:51:16;;;;;;;;;;;6.40;99.90;;;;;;5071113;28;19923;-44
2022/01/09 13:54:11;;;;;;;;;;;6.40;99.90;;;;;;5052719;28;20366;-46
2022/01/09 13:56:37;;;;;;;;;;;6.30;99.90;;;;;;5047967;28;19920;-48
2022/01/09 13:59:03;;;;;;;;;;;6.30;99.90;;;;;;5023157;28;19923;-46
2022/01/09 14:01:42;;;;;;;;;;;6.20;99.90;;;;;;5084334;28;20030;-46
2022/01/09 14:04:25;;;;;;;;;;;6.20;99.90;;;;;;5084377;28;19931;-47
2022/01/09 14:06:58;;;;;;;;;;;6.20;99.90;;;;;;5051237;28;19927;-49
2022/01/09 14:09:28;;;;;;;;;;;6.10;99.90;;;;;;5037384;28;19931;-49
2022/01/09 14:11:59;;;;;;;;;;;6.10;99.90;;;;;;5067754;28;20248;-48
2022/01/09 14:14:28;;;;;;;;;;;6.10;99.90;;;;;;5068643;28;19928;-46
2022/01/09 14:16:54;;;;;;;;;;;6.10;99.90;;;;;;5083756;28;19931;-46
2022/01/09 14:19:20;;;;;;;;;;;6.00;99.90;;;;;;5070343;28;19920;-46
2022/01/09 14:21:54;;;;;;;;;;;6.00;99.90;;;;;;5057685;28;20278;-47
2022/01/09 14:24:20;;;;;;;;;;;6.00;99.90;;;;;;5048910;28;19921;-45
2022/01/09 14:26:57;;;;;;;;;;;5.90;99.90;;;;;;5049132;28;20231;-44
2022/01/09 14:29:36;;;;;;;;;;;5.90;99.90;;;;;;5049553;28;19958;-44
2022/01/09 14:32:02;;;;;;;;;;;5.90;99.90;;;;;;5031569;28;20378;-44
2022/01/09 14:34:29;;;;;;;;;;;5.80;99.90;;;;;;5068614;28;19928;-45
2022/01/09 14:36:55;;;;;;;;;;;5.80;99.90;;;;;;5048305;28;19916;-46